sensor_id;sensor_type;location;lat;lon;timestamp;pressure;altitude;pressure_sealevel;temperature;humidity
11878;BME280;5998;42.676;23.268;2023-03-25T00:01:34;94551.03;;;9.52;100.00
11878;BME280;5998;42.676;23.268;2023-03-25T00:04:02;94543.78;;;9.52;100.00
11878;BME280;5998;42.676;23.268;2023-03-25T00:06:31;94543.41;;;9.54;100.00
11878;BME280;5998;42.676;23.268;2023-03-25T00:08:58;94550.94;;;9.48;100.00
11878;BME280;5998;42.676;23.268;2023-03-25T00:11:26;94550.84;;;9.44;100.00
11878;BME280;5998;42.676;23.268;2023-03-25T00:13:53;94526.78;;;9.36;100.00
11878;BME280;5998;42.676;23.268;2023-03-25T00:16:20;94524.53;;;9.38;100.00
11878;BME280;5998;42.676;23.268;2023-03-25T00:18:47;94535.47;;;9.45;100.00
11878;BME280;5998;42.676;23.268;2023-03-25T00:21:14;94535.41;;;9.41;100.00
11878;BME280;5998;42.676;23.268;2023-03-25T00:23:44;94530.47;;;9.31;100.00
11878;BME280;5998;42.676;23.268;2023-03-25T00:26:11;94524.78;;;9.33;100.00
11878;BME280;5998;42.676;23.268;2023-03-25T00:28:38;94514.25;;;9.28;100.00
11878;BME280;5998;42.676;23.268;2023-03-25T00:31:06;94519.16;;;9.38;100.00
11878;BME280;5998;42.676;23.268;2023-03-25T00:33:33;94520.84;;;9.30;100.00
11878;BME280;5998;42.676;23.268;2023-03-25T00:36:01;94521.66;;;9.19;100.00
11878;BME280;5998;42.676;23.268;2023-03-25T00:38:32;94525.25;;;9.23;100.00
11878;BME280;5998;42.676;23.268;2023-03-25T00:41:12;94527.94;;;9.23;100.00
11878;BME280;5998;42.676;23.268;2023-03-25T00:43:42;94525.69;;;9.13;100.00
11878;BME280;5998;42.676;23.268;2023-03-25T00:46:09;94523.22;;;9.08;100.00
11878;BME280;5998;42.676;23.268;2023-03-25T00:48:36;94519.97;;;9.14;100.00
11878;BME280;5998;42.676;23.268;2023-03-25T00:51:03;94518.19;;;9.06;100.00
11878;BME280;5998;42.676;23.268;2023-03-25T00:53:33;94514.28;;;9.04;100.00
11878;BME280;5998;42.676;23.268;2023-03-25T00:56:01;94507.78;;;9.05;100.00
11878;BME280;5998;42.676;23.268;2023-03-25T00:58:29;94507.53;;;9.10;100.00
11878;BME280;5998;42.676;23.268;2023-03-25T01:00:56;94508.69;;;9.09;100.00
11878;BME280;5998;42.676;23.268;2023-03-25T01:03:23;94506.00;;;9.09;100.00
11878;BME280;5998;42.676;23.268;2023-03-25T01:05:50;94502.19;;;9.10;100.00
11878;BME280;5998;42.676;23.268;2023-03-25T01:08:20;94505.22;;;9.08;100.00
11878;BME280;5998;42.676;23.268;2023-03-25T01:10:51;94496.00;;;9.09;100.00
11878;BME280;5998;42.676;23.268;2023-03-25T01:13:18;94494.59;;;9.12;100.00
11878;BME280;5998;42.676;23.268;2023-03-25T01:15:46;94496.25;;;9.16;100.00
11878;BME280;5998;42.676;23.268;2023-03-25T01:18:14;94488.53;;;9.03;100.00
11878;BME280;5998;42.676;23.268;2023-03-25T01:20:41;94487.88;;;9.06;100.00
11878;BME280;5998;42.676;23.268;2023-03-25T01:23:08;94490.78;;;9.01;100.00
11878;BME280;5998;42.676;23.268;2023-03-25T01:25:35;94478.34;;;8.96;100.00
11878;BME280;5998;42.676;23.268;2023-03-25T01:28:03;94474.56;;;8.97;100.00
11878;BME280;5998;42.676;23.268;2023-03-25T01:30:30;94470.06;;;9.01;100.00
11878;BME280;5998;42.676;23.268;2023-03-25T01:33:00;94470.84;;;9.02;100.00
11878;BME280;5998;42.676;23.268;2023-03-25T01:35:27;94466.94;;;8.99;100.00
11878;BME280;5998;42.676;23.268;2023-03-25T01:37:54;94464.13;;;8.96;100.00
11878;BME280;5998;42.676;23.268;2023-03-25T01:40:22;94460.22;;;8.93;100.00
11878;BME280;5998;42.676;23.268;2023-03-25T01:42:49;94456.53;;;8.85;100.00
11878;BME280;5998;42.676;23.268;2023-03-25T01:45:22;94453.00;;;8.81;100.00
11878;BME280;5998;42.676;23.268;2023-03-25T01:47:53;94454.22;;;8.84;100.00
11878;BME280;5998;42.676;23.268;2023-03-25T01:50:24;94465.94;;;8.79;100.00
11878;BME280;5998;42.676;23.268;2023-03-25T01:52:55;94449.84;;;8.67;100.00
11878;BME280;5998;42.676;23.268;2023-03-25T01:55:22;94462.81;;;8.65;100.00
11878;BME280;5998;42.676;23.268;2023-03-25T01:57:53;94450.41;;;8.49;100.00
11878;BME280;5998;42.676;23.268;2023-03-25T02:00:21;94442.91;;;8.42;100.00
11878;BME280;5998;42.676;23.268;2023-03-25T02:02:52;94457.00;;;8.63;100.00
11878;BME280;5998;42.676;23.268;2023-03-25T02:05:30;94460.59;;;8.67;100.00
11878;BME280;5998;42.676;23.268;2023-03-25T02:08:01;94434.19;;;8.45;100.00
11878;BME280;5998;42.676;23.268;2023-03-25T02:10:28;94449.31;;;8.62;100.00
11878;BME280;5998;42.676;23.268;2023-03-25T02:12:55;94452.31;;;8.60;100.00
11878;BME280;5998;42.676;23.268;2023-03-25T02:15:22;94436.88;;;8.57;100.00
11878;BME280;5998;42.676;23.268;2023-03-25T02:18:03;94441.56;;;8.60;100.00
11878;BME280;5998;42.676;23.268;2023-03-25T02:20:58;94440.03;;;8.59;100.00
11878;BME280;5998;42.676;23.268;2023-03-25T02:24:01;94445.06;;;8.49;100.00
11878;BME280;5998;42.676;23.268;2023-03-25T02:26:56;94442.03;;;8.50;100.00
11878;BME280;5998;42.676;23.268;2023-03-25T02:29:37;94447.19;;;8.43;100.00
11878;BME280;5998;42.676;23.268;2023-03-25T02:32:17;94438.00;;;8.44;100.00
11878;BME280;5998;42.676;23.268;2023-03-25T02:35:08;94435.19;;;8.41;100.00
11878;BME280;5998;42.676;23.268;2023-03-25T02:38:03;94440.13;;;8.39;100.00
11878;BME280;5998;42.676;23.268;2023-03-25T02:40:36;94435.75;;;8.34;100.00
11878;BME280;5998;42.676;23.268;2023-03-25T02:43:10;94427.72;;;8.34;100.00
11878;BME280;5998;42.676;23.268;2023-03-25T02:45:43;94441.00;;;8.30;100.00
11878;BME280;5998;42.676;23.268;2023-03-25T02:48:13;94443.31;;;8.20;100.00
11878;BME280;5998;42.676;23.268;2023-03-25T02:50:44;94431.56;;;8.12;100.00
11878;BME280;5998;42.676;23.268;2023-03-25T02:53:18;94433.13;;;8.13;100.00
11878;BME280;5998;42.676;23.268;2023-03-25T02:55:46;94433.22;;;8.05;100.00
11878;BME280;5998;42.676;23.268;2023-03-25T02:58:16;94437.38;;;8.14;100.00
11878;BME280;5998;42.676;23.268;2023-03-25T03:00:46;94428.97;;;8.16;100.00
11878;BME280;5998;42.676;23.268;2023-03-25T03:03:13;94424.63;;;8.11;100.00
11878;BME280;5998;42.676;23.268;2023-03-25T03:05:42;94423.84;;;8.11;100.00
11878;BME280;5998;42.676;23.268;2023-03-25T03:08:37;94418.59;;;8.14;100.00
11878;BME280;5998;42.676;23.268;2023-03-25T03:11:11;94419.72;;;8.13;100.00
11878;BME280;5998;42.676;23.268;2023-03-25T03:13:55;94415.22;;;8.05;100.00
11878;BME280;5998;42.676;23.268;2023-03-25T03:16:31;94429.41;;;8.06;100.00
11878;BME280;5998;42.676;23.268;2023-03-25T03:19:04;94418.56;;;8.02;100.00
11878;BME280;5998;42.676;23.268;2023-03-25T03:21:37;94409.06;;;7.93;100.00
11878;BME280;5998;42.676;23.268;2023-03-25T03:24:11;94425.72;;;7.98;100.00
11878;BME280;5998;42.676;23.268;2023-03-25T03:26:45;94438.56;;;7.93;100.00
11878;BME280;5998;42.676;23.268;2023-03-25T03:29:16;94430.16;;;7.94;100.00
11878;BME280;5998;42.676;23.268;2023-03-25T03:31:45;94417.56;;;7.95;100.00
11878;BME280;5998;42.676;23.268;2023-03-25T03:34:19;94430.09;;;8.03;100.00
11878;BME280;5998;42.676;23.268;2023-03-25T03:36:51;94432.44;;;8.04;100.00
11878;BME280;5998;42.676;23.268;2023-03-25T03:39:22;94427.63;;;7.98;100.00
11878;BME280;5998;42.676;23.268;2023-03-25T03:41:54;94429.28;;;8.02;100.00
11878;BME280;5998;42.676;23.268;2023-03-25T03:44:26;94421.69;;;7.92;100.00
11878;BME280;5998;42.676;23.268;2023-03-25T03:46:58;94436.56;;;8.02;100.00
11878;BME280;5998;42.676;23.268;2023-03-25T03:49:28;94430.75;;;8.00;100.00
11878;BME280;5998;42.676;23.268;2023-03-25T03:51:59;94433.44;;;8.00;100.00
11878;BME280;5998;42.676;23.268;2023-03-25T03:54:31;94428.06;;;8.00;100.00
11878;BME280;5998;42.676;23.268;2023-03-25T03:57:01;94431.63;;;7.92;100.00
11878;BME280;5998;42.676;23.268;2023-03-25T03:59:34;94439.13;;;7.98;100.00
11878;BME280;5998;42.676;23.268;2023-03-25T04:02:06;94435.44;;;8.03;100.00
11878;BME280;5998;42.676;23.268;2023-03-25T04:04:38;94436.44;;;7.98;100.00
11878;BME280;5998;42.676;23.268;2023-03-25T04:07:11;94435.44;;;8.03;100.00
11878;BME280;5998;42.676;23.268;2023-03-25T04:09:49;94434.34;;;8.04;100.00
11878;BME280;5998;42.676;23.268;2023-03-25T04:12:24;94435.00;;;8.01;100.00
11878;BME280;5998;42.676;23.268;2023-03-25T04:14:52;94428.72;;;7.97;100.00
11878;BME280;5998;42.676;23.268;2023-03-25T04:17:19;94424.06;;;7.94;100.00
11878;BME280;5998;42.676;23.268;2023-03-25T04:19:46;94431.88;;;7.99;100.00
11878;BME280;5998;42.676;23.268;2023-03-25T04:22:14;94427.19;;;7.96;100.00
11878;BME280;5998;42.676;23.268;2023-03-25T04:24:43;94420.59;;;7.93;100.00
11878;BME280;5998;42.676;23.268;2023-03-25T04:27:14;94426.72;;;7.94;100.00
11878;BME280;5998;42.676;23.268;2023-03-25T04:29:41;94419.75;;;7.81;100.00
11878;BME280;5998;42.676;23.268;2023-03-25T04:32:10;94430.16;;;7.94;100.00
11878;BME280;5998;42.676;23.268;2023-03-25T04:34:39;94428.41;;;7.98;100.00
11878;BME280;5998;42.676;23.268;2023-03-25T04:37:06;94436.31;;;7.95;100.00
11878;BME280;5998;42.676;23.268;2023-03-25T04:39:33;94428.66;;;7.72;100.00
11878;BME280;5998;42.676;23.268;2023-03-25T04:42:01;94439.88;;;7.87;100.00
11878;BME280;5998;42.676;23.268;2023-03-25T04:44:29;94444.81;;;7.97;100.00
11878;BME280;5998;42.676;23.268;2023-03-25T04:47:04;94443.03;;;8.01;100.00
11878;BME280;5998;42.676;23.268;2023-03-25T04:49:32;94450.09;;;8.05;100.00
11878;BME280;5998;42.676;23.268;2023-03-25T04:51:59;94442.16;;;8.09;100.00
11878;BME280;5998;42.676;23.268;2023-03-25T04:54:28;94452.00;;;8.17;100.00
11878;BME280;5998;42.676;23.268;2023-03-25T04:56:55;94443.88;;;8.25;100.00
11878;BME280;5998;42.676;23.268;2023-03-25T04:59:24;94441.72;;;8.19;100.00
11878;BME280;5998;42.676;23.268;2023-03-25T05:01:51;94443.47;;;8.36;100.00
11878;BME280;5998;42.676;23.268;2023-03-25T05:04:18;94440.91;;;8.51;100.00
11878;BME280;5998;42.676;23.268;2023-03-25T05:06:47;94431.31;;;8.62;100.00
11878;BME280;5998;42.676;23.268;2023-03-25T05:09:16;94429.72;;;8.73;100.00
11878;BME280;5998;42.676;23.268;2023-03-25T05:11:45;94441.44;;;8.93;100.00
11878;BME280;5998;42.676;23.268;2023-03-25T05:14:14;94436.72;;;9.14;100.00
11878;BME280;5998;42.676;23.268;2023-03-25T05:16:42;94443.38;;;9.32;100.00
11878;BME280;5998;42.676;23.268;2023-03-25T05:19:10;94440.13;;;9.39;100.00
11878;BME280;5998;42.676;23.268;2023-03-25T05:21:38;94431.22;;;9.50;100.00
11878;BME280;5998;42.676;23.268;2023-03-25T05:24:08;94435.31;;;9.72;100.00
11878;BME280;5998;42.676;23.268;2023-03-25T05:26:36;94439.38;;;9.82;100.00
11878;BME280;5998;42.676;23.268;2023-03-25T05:29:05;94433.03;;;10.02;100.00
11878;BME280;5998;42.676;23.268;2023-03-25T05:31:32;94430.22;;;10.26;100.00
11878;BME280;5998;42.676;23.268;2023-03-25T05:34:01;94426.72;;;10.41;100.00
11878;BME280;5998;42.676;23.268;2023-03-25T05:36:31;94433.66;;;10.58;100.00
11878;BME280;5998;42.676;23.268;2023-03-25T05:38:57;94437.06;;;10.71;100.00
11878;BME280;5998;42.676;23.268;2023-03-25T05:41:25;94427.38;;;10.85;100.00
11878;BME280;5998;42.676;23.268;2023-03-25T05:43:57;94427.97;;;10.94;100.00
11878;BME280;5998;42.676;23.268;2023-03-25T05:46:25;94427.25;;;11.13;100.00
11878;BME280;5998;42.676;23.268;2023-03-25T05:48:54;94435.34;;;11.32;100.00
11878;BME280;5998;42.676;23.268;2023-03-25T05:51:24;94426.44;;;11.47;100.00
11878;BME280;5998;42.676;23.268;2023-03-25T05:53:51;94426.56;;;11.70;100.00
11878;BME280;5998;42.676;23.268;2023-03-25T05:56:18;94420.41;;;11.92;100.00
11878;BME280;5998;42.676;23.268;2023-03-25T05:58:46;94425.66;;;12.04;100.00
11878;BME280;5998;42.676;23.268;2023-03-25T06:01:13;94427.66;;;12.30;100.00
11878;BME280;5998;42.676;23.268;2023-03-25T06:03:41;94426.53;;;12.54;100.00
11878;BME280;5998;42.676;23.268;2023-03-25T06:06:09;94426.03;;;12.71;100.00
11878;BME280;5998;42.676;23.268;2023-03-25T06:08:39;94418.66;;;12.94;100.00
11878;BME280;5998;42.676;23.268;2023-03-25T06:11:06;94388.63;;;12.73;100.00
11878;BME280;5998;42.676;23.268;2023-03-25T06:13:33;94407.56;;;12.99;100.00
11878;BME280;5998;42.676;23.268;2023-03-25T06:16:02;94419.34;;;12.87;100.00
11878;BME280;5998;42.676;23.268;2023-03-25T06:18:30;94410.25;;;12.99;100.00
11878;BME280;5998;42.676;23.268;2023-03-25T06:20:57;94407.97;;;13.27;100.00
11878;BME280;5998;42.676;23.268;2023-03-25T06:23:24;94413.81;;;13.29;100.00
11878;BME280;5998;42.676;23.268;2023-03-25T06:25:53;94412.31;;;13.35;100.00
11878;BME280;5998;42.676;23.268;2023-03-25T06:28:20;94413.88;;;13.66;100.00
11878;BME280;5998;42.676;23.268;2023-03-25T06:30:48;94408.84;;;13.98;100.00
11878;BME280;5998;42.676;23.268;2023-03-25T06:33:15;94399.31;;;14.11;100.00
11878;BME280;5998;42.676;23.268;2023-03-25T06:35:46;94412.84;;;14.11;100.00
11878;BME280;5998;42.676;23.268;2023-03-25T06:38:18;94419.59;;;14.31;100.00
11878;BME280;5998;42.676;23.268;2023-03-25T06:40:45;94416.19;;;14.74;100.00
11878;BME280;5998;42.676;23.268;2023-03-25T06:43:14;94427.63;;;14.57;100.00
11878;BME280;5998;42.676;23.268;2023-03-25T06:45:41;94415.97;;;14.50;100.00
11878;BME280;5998;42.676;23.268;2023-03-25T06:48:08;94417.59;;;14.58;100.00
11878;BME280;5998;42.676;23.268;2023-03-25T06:50:34;94423.84;;;14.65;100.00
11878;BME280;5998;42.676;23.268;2023-03-25T06:53:01;94425.94;;;14.83;100.00
11878;BME280;5998;42.676;23.268;2023-03-25T06:55:28;94424.44;;;14.89;100.00
11878;BME280;5998;42.676;23.268;2023-03-25T06:57:55;94435.59;;;14.84;100.00
11878;BME280;5998;42.676;23.268;2023-03-25T07:00:23;94424.13;;;15.01;100.00
11878;BME280;5998;42.676;23.268;2023-03-25T07:02:52;94413.59;;;14.92;100.00
11878;BME280;5998;42.676;23.268;2023-03-25T07:05:19;94430.03;;;15.17;100.00
11878;BME280;5998;42.676;23.268;2023-03-25T07:07:46;94430.38;;;15.12;100.00
11878;BME280;5998;42.676;23.268;2023-03-25T07:10:13;94414.19;;;15.19;100.00
11878;BME280;5998;42.676;23.268;2023-03-25T07:12:40;94423.16;;;15.33;100.00
11878;BME280;5998;42.676;23.268;2023-03-25T07:15:07;94417.78;;;15.44;100.00
11878;BME280;5998;42.676;23.268;2023-03-25T07:17:35;94422.25;;;15.77;98.26
11878;BME280;5998;42.676;23.268;2023-03-25T07:20:03;94408.78;;;15.98;97.62
11878;BME280;5998;42.676;23.268;2023-03-25T07:22:30;94413.50;;;16.22;94.56
11878;BME280;5998;42.676;23.268;2023-03-25T07:24:57;94416.91;;;15.98;91.53
11878;BME280;5998;42.676;23.268;2023-03-25T07:27:24;94418.38;;;15.71;93.99
11878;BME280;5998;42.676;23.268;2023-03-25T07:29:51;94422.19;;;15.66;93.75
11878;BME280;5998;42.676;23.268;2023-03-25T07:32:17;94413.78;;;15.96;97.00
11878;BME280;5998;42.676;23.268;2023-03-25T07:34:46;94409.22;;;16.32;97.25
11878;BME280;5998;42.676;23.268;2023-03-25T07:37:12;94411.66;;;16.62;93.14
11878;BME280;5998;42.676;23.268;2023-03-25T07:39:39;94407.00;;;16.80;96.57
11878;BME280;5998;42.676;23.268;2023-03-25T07:42:06;94403.06;;;17.20;90.83
11878;BME280;5998;42.676;23.268;2023-03-25T07:44:32;94406.59;;;17.13;88.26
11878;BME280;5998;42.676;23.268;2023-03-25T07:46:59;94402.28;;;17.12;87.62
11878;BME280;5998;42.676;23.268;2023-03-25T07:49:26;94394.44;;;17.53;96.84
11878;BME280;5998;42.676;23.268;2023-03-25T07:51:54;94397.59;;;17.55;83.71
11878;BME280;5998;42.676;23.268;2023-03-25T07:54:21;94392.91;;;17.62;84.80
11878;BME280;5998;42.676;23.268;2023-03-25T07:56:48;94396.03;;;17.54;83.49
11878;BME280;5998;42.676;23.268;2023-03-25T07:59:17;94387.34;;;17.84;100.00
11878;BME280;5998;42.676;23.268;2023-03-25T08:01:43;94391.97;;;18.01;84.79
11878;BME280;5998;42.676;23.268;2023-03-25T08:04:10;94380.50;;;18.31;83.51
11878;BME280;5998;42.676;23.268;2023-03-25T08:06:38;94377.34;;;18.39;80.00
11878;BME280;5998;42.676;23.268;2023-03-25T08:09:06;94373.91;;;18.24;78.19
11878;BME280;5998;42.676;23.268;2023-03-25T08:11:32;94369.53;;;18.48;83.41
11878;BME280;5998;42.676;23.268;2023-03-25T08:13:59;94364.44;;;18.50;88.86
11878;BME280;5998;42.676;23.268;2023-03-25T08:16:26;94353.16;;;18.41;82.72
11878;BME280;5998;42.676;23.268;2023-03-25T08:18:52;94367.31;;;18.84;82.94
11878;BME280;5998;42.676;23.268;2023-03-25T08:21:20;94358.69;;;19.26;77.85
11878;BME280;5998;42.676;23.268;2023-03-25T08:23:50;94350.72;;;19.05;76.47
11878;BME280;5998;42.676;23.268;2023-03-25T08:26:24;94359.06;;;19.28;79.08
11878;BME280;5998;42.676;23.268;2023-03-25T08:28:51;94356.75;;;19.27;74.29
11878;BME280;5998;42.676;23.268;2023-03-25T08:31:19;94356.56;;;19.48;79.93
11878;BME280;5998;42.676;23.268;2023-03-25T08:33:46;94356.09;;;19.16;75.40
11878;BME280;5998;42.676;23.268;2023-03-25T08:36:13;94357.97;;;18.81;74.70
11878;BME280;5998;42.676;23.268;2023-03-25T08:38:44;94338.09;;;18.81;85.06
11878;BME280;5998;42.676;23.268;2023-03-25T08:41:10;94349.41;;;18.79;81.95
11878;BME280;5998;42.676;23.268;2023-03-25T08:43:38;94346.19;;;18.92;81.28
11878;BME280;5998;42.676;23.268;2023-03-25T08:46:05;94348.31;;;19.14;75.72
11878;BME280;5998;42.676;23.268;2023-03-25T08:48:32;94345.53;;;19.18;76.94
11878;BME280;5998;42.676;23.268;2023-03-25T08:50:59;94344.16;;;18.99;72.78
11878;BME280;5998;42.676;23.268;2023-03-25T08:53:26;94343.75;;;18.56;73.07
11878;BME280;5998;42.676;23.268;2023-03-25T08:55:54;94346.19;;;18.37;76.28
11878;BME280;5998;42.676;23.268;2023-03-25T08:58:21;94347.00;;;18.30;77.88
11878;BME280;5998;42.676;23.268;2023-03-25T09:00:50;94335.56;;;18.56;77.20
11878;BME280;5998;42.676;23.268;2023-03-25T09:03:18;94334.81;;;18.97;83.03
11878;BME280;5998;42.676;23.268;2023-03-25T09:05:45;94335.66;;;19.31;80.51
11878;BME280;5998;42.676;23.268;2023-03-25T09:08:12;94331.44;;;19.60;79.78
11878;BME280;5998;42.676;23.268;2023-03-25T09:10:39;94328.97;;;19.39;75.23
11878;BME280;5998;42.676;23.268;2023-03-25T09:13:05;94325.66;;;19.17;71.03
11878;BME280;5998;42.676;23.268;2023-03-25T09:15:32;94314.69;;;18.83;70.23
11878;BME280;5998;42.676;23.268;2023-03-25T09:18:00;94310.34;;;19.27;74.95
11878;BME280;5998;42.676;23.268;2023-03-25T09:20:27;94314.25;;;19.63;71.56
11878;BME280;5998;42.676;23.268;2023-03-25T09:22:54;94310.72;;;19.66;68.77
11878;BME280;5998;42.676;23.268;2023-03-25T09:25:20;94315.06;;;19.90;66.95
11878;BME280;5998;42.676;23.268;2023-03-25T09:27:47;94307.41;;;19.78;66.77
11878;BME280;5998;42.676;23.268;2023-03-25T09:30:14;94310.28;;;19.98;70.35
11878;BME280;5998;42.676;23.268;2023-03-25T09:32:41;94308.69;;;20.00;68.53
11878;BME280;5998;42.676;23.268;2023-03-25T09:35:10;94309.16;;;19.95;70.68
11878;BME280;5998;42.676;23.268;2023-03-25T09:37:37;94299.31;;;20.28;66.10
11878;BME280;5998;42.676;23.268;2023-03-25T09:40:05;94302.19;;;20.44;68.08
11878;BME280;5998;42.676;23.268;2023-03-25T09:42:54;94295.22;;;20.43;68.33
11878;BME280;5998;42.676;23.268;2023-03-25T09:45:31;94292.75;;;20.22;64.59
11878;BME280;5998;42.676;23.268;2023-03-25T09:48:03;94293.41;;;19.76;65.69
11878;BME280;5998;42.676;23.268;2023-03-25T09:50:33;94301.66;;;19.39;65.13
11878;BME280;5998;42.676;23.268;2023-03-25T09:53:04;94291.13;;;19.71;70.69
11878;BME280;5998;42.676;23.268;2023-03-25T09:55:35;94280.22;;;19.98;65.45
11878;BME280;5998;42.676;23.268;2023-03-25T09:58:21;94284.75;;;19.81;60.37
11878;BME280;5998;42.676;23.268;2023-03-25T10:00:53;94281.38;;;19.70;60.35
11878;BME280;5998;42.676;23.268;2023-03-25T10:03:24;94286.16;;;19.93;62.85
11878;BME280;5998;42.676;23.268;2023-03-25T10:06:05;94270.06;;;20.25;59.33
11878;BME280;5998;42.676;23.268;2023-03-25T10:08:46;94280.56;;;20.53;60.60
11878;BME280;5998;42.676;23.268;2023-03-25T10:11:24;94276.19;;;20.59;62.06
11878;BME280;5998;42.676;23.268;2023-03-25T10:13:56;94261.72;;;20.59;56.32
11878;BME280;5998;42.676;23.268;2023-03-25T10:16:32;94261.34;;;21.03;54.93
11878;BME280;5998;42.676;23.268;2023-03-25T10:19:17;94255.25;;;21.15;54.26
11878;BME280;5998;42.676;23.268;2023-03-25T10:21:52;94248.38;;;21.27;61.95
11878;BME280;5998;42.676;23.268;2023-03-25T10:24:22;94247.19;;;21.28;54.33
11878;BME280;5998;42.676;23.268;2023-03-25T10:26:53;94237.47;;;21.04;53.87
11878;BME280;5998;42.676;23.268;2023-03-25T10:29:26;94227.75;;;21.42;61.74
11878;BME280;5998;42.676;23.268;2023-03-25T10:32:02;94227.66;;;21.82;54.07
11878;BME280;5998;42.676;23.268;2023-03-25T10:34:34;94229.09;;;22.06;53.56
11878;BME280;5998;42.676;23.268;2023-03-25T10:37:11;94228.25;;;21.93;59.01
11878;BME280;5998;42.676;23.268;2023-03-25T10:39:42;94229.53;;;21.68;53.83
11878;BME280;5998;42.676;23.268;2023-03-25T10:42:19;94225.69;;;21.07;55.13
11878;BME280;5998;42.676;23.268;2023-03-25T10:44:51;94229.16;;;20.88;56.86
11878;BME280;5998;42.676;23.268;2023-03-25T10:47:19;94223.72;;;20.65;61.92
11878;BME280;5998;42.676;23.268;2023-03-25T10:49:50;94219.41;;;20.87;57.13
11878;BME280;5998;42.676;23.268;2023-03-25T10:52:19;94215.75;;;20.93;60.33
11878;BME280;5998;42.676;23.268;2023-03-25T10:54:49;94206.13;;;20.66;58.58
11878;BME280;5998;42.676;23.268;2023-03-25T10:57:19;94205.38;;;20.85;58.21
11878;BME280;5998;42.676;23.268;2023-03-25T10:59:55;94198.66;;;20.89;57.58
11878;BME280;5998;42.676;23.268;2023-03-25T11:02:27;94195.41;;;20.94;58.16
11878;BME280;5998;42.676;23.268;2023-03-25T11:04:57;94197.94;;;21.05;57.06
11878;BME280;5998;42.676;23.268;2023-03-25T11:07:29;94188.84;;;21.31;60.89
11878;BME280;5998;42.676;23.268;2023-03-25T11:10:09;94186.72;;;21.74;54.81
11878;BME280;5998;42.676;23.268;2023-03-25T11:12:40;94193.72;;;21.59;53.63
11878;BME280;5998;42.676;23.268;2023-03-25T11:15:12;94179.00;;;21.53;55.01
11878;BME280;5998;42.676;23.268;2023-03-25T11:17:40;94168.91;;;21.11;54.77
11878;BME280;5998;42.676;23.268;2023-03-25T11:20:17;94177.47;;;21.13;53.13
11878;BME280;5998;42.676;23.268;2023-03-25T11:22:47;94181.94;;;20.84;53.12
11878;BME280;5998;42.676;23.268;2023-03-25T11:25:18;94173.19;;;20.92;54.09
11878;BME280;5998;42.676;23.268;2023-03-25T11:27:52;94173.66;;;20.44;52.05
11878;BME280;5998;42.676;23.268;2023-03-25T11:30:22;94169.78;;;20.65;51.75
11878;BME280;5998;42.676;23.268;2023-03-25T11:32:57;94147.91;;;20.65;51.22
11878;BME280;5998;42.676;23.268;2023-03-25T11:35:27;94159.34;;;20.80;53.00
11878;BME280;5998;42.676;23.268;2023-03-25T11:37:58;94146.66;;;21.29;50.94
11878;BME280;5998;42.676;23.268;2023-03-25T11:40:26;94144.41;;;21.75;49.98
11878;BME280;5998;42.676;23.268;2023-03-25T11:42:55;94134.38;;;22.05;49.87
11878;BME280;5998;42.676;23.268;2023-03-25T11:45:23;94142.06;;;22.10;47.60
11878;BME280;5998;42.676;23.268;2023-03-25T11:47:56;94139.13;;;22.17;49.83
11878;BME280;5998;42.676;23.268;2023-03-25T11:50:26;94131.59;;;22.21;46.66
11878;BME280;5998;42.676;23.268;2023-03-25T11:52:56;94137.59;;;21.84;47.39
11878;BME280;5998;42.676;23.268;2023-03-25T11:55:26;94130.44;;;21.54;48.54
11878;BME280;5998;42.676;23.268;2023-03-25T11:57:55;94131.28;;;21.51;48.71
11878;BME280;5998;42.676;23.268;2023-03-25T12:00:30;94131.38;;;21.47;48.50
11878;BME280;5998;42.676;23.268;2023-03-25T12:02:59;94131.25;;;21.35;48.62
11878;BME280;5998;42.676;23.268;2023-03-25T12:05:26;94124.94;;;21.18;48.32
11878;BME280;5998;42.676;23.268;2023-03-25T12:08:03;94129.28;;;21.35;48.71
11878;BME280;5998;42.676;23.268;2023-03-25T12:10:41;94116.09;;;20.91;48.16
11878;BME280;5998;42.676;23.268;2023-03-25T12:13:16;94119.63;;;20.72;49.35
11878;BME280;5998;42.676;23.268;2023-03-25T12:15:51;94130.44;;;20.59;48.89
11878;BME280;5998;42.676;23.268;2023-03-25T12:18:34;94123.84;;;20.56;49.20
11878;BME280;5998;42.676;23.268;2023-03-25T12:21:11;94118.22;;;20.21;49.94
11878;BME280;5998;42.676;23.268;2023-03-25T12:23:51;94109.13;;;20.04;49.97
11878;BME280;5998;42.676;23.268;2023-03-25T12:26:25;94118.63;;;19.96;50.67
11878;BME280;5998;42.676;23.268;2023-03-25T12:29:08;94112.16;;;20.10;51.08
11878;BME280;5998;42.676;23.268;2023-03-25T12:31:48;94125.91;;;20.29;51.21
11878;BME280;5998;42.676;23.268;2023-03-25T12:34:27;94125.91;;;20.29;50.44
11878;BME280;5998;42.676;23.268;2023-03-25T12:37:02;94128.00;;;19.95;49.96
11878;BME280;5998;42.676;23.268;2023-03-25T12:39:43;94112.44;;;19.92;50.46
11878;BME280;5998;42.676;23.268;2023-03-25T12:42:27;94116.84;;;19.86;50.06
11878;BME280;5998;42.676;23.268;2023-03-25T12:48:09;94121.59;;;20.05;50.81
11878;BME280;5998;42.676;23.268;2023-03-25T12:50:48;94108.00;;;20.01;50.33
11878;BME280;5998;42.676;23.268;2023-03-25T12:53:32;94113.47;;;20.25;52.79
11878;BME280;5998;42.676;23.268;2023-03-25T12:56:12;94109.22;;;20.63;51.71
11878;BME280;5998;42.676;23.268;2023-03-25T12:58:57;94116.38;;;20.77;49.56
11878;BME280;5998;42.676;23.268;2023-03-25T13:01:32;94113.28;;;20.55;48.98
11878;BME280;5998;42.676;23.268;2023-03-25T13:04:27;94117.69;;;20.29;50.04
11878;BME280;5998;42.676;23.268;2023-03-25T13:07:02;94114.75;;;20.17;49.24
11878;BME280;5998;42.676;23.268;2023-03-25T13:09:33;94108.47;;;19.96;49.98
11878;BME280;5998;42.676;23.268;2023-03-25T13:12:08;94120.03;;;19.81;50.68
11878;BME280;5998;42.676;23.268;2023-03-25T13:14:38;94126.34;;;20.01;52.17
11878;BME280;5998;42.676;23.268;2023-03-25T13:17:11;94109.09;;;19.81;52.66
11878;BME280;5998;42.676;23.268;2023-03-25T13:19:43;94124.38;;;19.78;52.25